createdAt,value
2023-05-02T00:00:38.664Z,11.05
2023-05-02T00:03:43.685Z,11.16
2023-05-02T00:06:47.193Z,11.27
2023-05-02T00:09:49.721Z,11.33
2023-05-02T00:12:52.234Z,11.45
2023-05-02T00:15:54.792Z,11.54
2023-05-02T00:18:57.617Z,11.71
2023-05-02T00:22:00.778Z,11.80
2023-05-02T00:25:03.504Z,11.73
2023-05-02T00:28:06.168Z,11.72
2023-05-02T00:31:13.463Z,11.65
2023-05-02T00:34:16.099Z,11.79
2023-05-02T00:37:18.836Z,11.87
2023-05-02T00:40:21.584Z,11.82
2023-05-02T00:43:24.116Z,11.72
2023-05-02T00:46:27.225Z,11.86
2023-05-02T00:49:31.110Z,11.95
2023-05-02T00:52:33.667Z,11.97
2023-05-02T00:55:36.904Z,12.04
2023-05-02T00:58:41.235Z,12.06
2023-05-02T01:02:11.611Z,12.06
2023-05-02T01:05:42.352Z,12.04
2023-05-02T01:09:00.152Z,12.13
2023-05-02T01:12:32.885Z,12.14
2023-05-02T01:15:39.311Z,12.15
2023-05-02T01:18:43.971Z,12.10
2023-05-02T01:21:48.394Z,12.06
2023-05-02T01:25:14.369Z,11.99
2023-05-02T01:28:28.993Z,11.99
2023-05-02T01:31:35.924Z,11.95
2023-05-02T01:34:43.253Z,11.93
2023-05-02T01:37:48.387Z,11.89
2023-05-02T01:40:52.533Z,11.85
2023-05-02T01:43:57.899Z,11.77
2023-05-02T01:47:03.402Z,11.59
2023-05-02T01:50:07.915Z,11.50
2023-05-02T01:53:13.850Z,11.44
2023-05-02T01:56:19.643Z,11.43
2023-05-02T01:59:24.412Z,11.42
2023-05-02T02:02:29.362Z,11.34
2023-05-02T02:05:33.887Z,11.23
2023-05-02T02:08:36.516Z,11.26
2023-05-02T02:11:52.631Z,11.28
2023-05-02T02:15:06.981Z,11.28
2023-05-02T02:18:17.872Z,11.27
2023-05-02T02:21:21.633Z,11.34
2023-05-02T02:24:26.125Z,11.23
2023-05-02T02:27:30.050Z,11.11
2023-05-02T02:30:33.022Z,11.03
2023-05-02T02:33:36.124Z,10.94
2023-05-02T02:36:55.379Z,10.95
2023-05-02T02:40:09.773Z,10.95
2023-05-02T02:43:27.554Z,10.86
2023-05-02T02:46:58.341Z,10.69
2023-05-02T02:50:17.001Z,10.63
2023-05-02T02:53:27.650Z,10.52
2023-05-02T02:56:40.390Z,10.39
2023-05-02T02:59:51.456Z,10.23
2023-05-02T03:02:54.788Z,10.14
2023-05-02T03:05:57.642Z,10.09
2023-05-02T03:09:01.665Z,10.01
2023-05-02T03:12:06.159Z,9.92
2023-05-02T03:15:24.227Z,9.88
2023-05-02T03:18:28.138Z,9.93
2023-05-02T03:21:31.796Z,9.91
2023-05-02T03:24:40.563Z,9.87
2023-05-02T03:27:46.684Z,9.84
2023-05-02T03:30:50.560Z,9.75
2023-05-02T03:33:54.548Z,9.59
2023-05-02T03:36:57.905Z,9.49
2023-05-02T03:40:01.568Z,9.47
2023-05-02T03:43:05.135Z,9.57
2023-05-02T03:46:11.513Z,9.72
2023-05-02T03:49:19.881Z,9.67
2023-05-02T03:52:25.452Z,9.70
2023-05-02T03:55:29.719Z,9.75
2023-05-02T03:58:33.535Z,9.78
2023-05-02T04:01:36.455Z,9.79
2023-05-02T04:04:41.180Z,9.72
2023-05-02T04:07:45.967Z,9.68
2023-05-02T04:10:52.263Z,9.83
2023-05-02T04:13:55.057Z,9.90
2023-05-02T04:16:57.687Z,9.97
2023-05-02T04:20:11.607Z,10.00
2023-05-02T04:23:18.153Z,10.03
2023-05-02T04:26:22.878Z,10.01
2023-05-02T04:29:31.923Z,10.15
2023-05-02T04:32:34.984Z,10.30
2023-05-02T04:35:42.274Z,10.44
2023-05-02T04:38:47.625Z,10.53
2023-05-02T04:41:52.158Z,10.66
2023-05-02T04:44:55.530Z,10.63
2023-05-02T04:47:58.245Z,10.71
2023-05-02T04:51:00.929Z,10.72
2023-05-02T04:54:04.762Z,10.78
2023-05-02T04:57:08.084Z,10.87
2023-05-02T05:00:13.922Z,11.02
2023-05-02T05:03:19.046Z,11.13
2023-05-02T05:06:22.712Z,11.23
2023-05-02T05:09:26.088Z,11.35
2023-05-02T05:12:29.718Z,11.54
2023-05-02T05:15:32.692Z,11.66
2023-05-02T05:18:40.944Z,11.68
2023-05-02T05:21:46.523Z,11.79
2023-05-02T05:24:56.679Z,11.94
2023-05-02T05:28:05.282Z,12.03
2023-05-02T05:31:17.212Z,12.18
2023-05-02T05:34:25.217Z,12.38
2023-05-02T05:37:30.599Z,12.52
2023-05-02T05:40:35.874Z,12.60
2023-05-02T05:43:38.645Z,12.87
2023-05-02T05:46:42.320Z,13.15
2023-05-02T05:49:47.282Z,13.33
2023-05-02T05:52:50.008Z,13.50
2023-05-02T05:55:54.257Z,13.57
2023-05-02T05:58:57.310Z,13.58
2023-05-02T06:02:00.549Z,13.59
2023-05-02T06:05:03.700Z,13.62
2023-05-02T06:08:07.757Z,13.71
2023-05-02T06:11:11.799Z,13.72
2023-05-02T06:14:15.091Z,13.77
2023-05-02T06:17:18.495Z,13.83
2023-05-02T06:20:21.283Z,13.91
2023-05-02T06:23:24.084Z,14.02
2023-05-02T06:26:26.739Z,14.22
2023-05-02T06:29:29.520Z,14.50
2023-05-02T06:32:32.417Z,14.60
2023-05-02T06:35:35.021Z,14.83
2023-05-02T06:38:37.730Z,15.00
2023-05-02T06:41:40.365Z,15.16
2023-05-02T06:44:42.897Z,15.28
2023-05-02T06:47:45.824Z,15.40
2023-05-02T06:50:49.835Z,15.53
2023-05-02T06:53:54.660Z,15.60
2023-05-02T06:57:02.974Z,15.60
2023-05-02T07:00:08.706Z,15.73
2023-05-02T07:03:15.210Z,15.78
2023-05-02T07:06:19.609Z,16.01
2023-05-02T07:09:22.194Z,16.40
2023-05-02T07:12:26.847Z,16.72
2023-05-02T07:15:29.613Z,16.97
2023-05-02T07:18:32.237Z,17.06
2023-05-02T07:21:34.848Z,17.21
2023-05-02T07:24:41.608Z,17.36
2023-05-02T07:27:44.932Z,17.45
2023-05-02T07:30:47.655Z,17.70
2023-05-02T07:33:50.717Z,17.91
2023-05-02T07:36:53.745Z,17.94
2023-05-02T07:39:56.639Z,17.87
2023-05-02T07:43:02.260Z,18.05
2023-05-02T07:46:06.850Z,18.07
2023-05-02T07:49:09.681Z,17.94
2023-05-02T07:52:12.539Z,18.06
2023-05-02T07:55:15.298Z,18.21
2023-05-02T07:58:17.848Z,18.25
2023-05-02T08:01:21.575Z,18.13
2023-05-02T08:04:24.510Z,17.98
2023-05-02T08:07:27.199Z,18.00
2023-05-02T08:10:29.854Z,18.18
2023-05-02T08:13:32.600Z,18.40
2023-05-02T08:16:35.311Z,18.62
2023-05-02T08:19:38.042Z,18.67
2023-05-02T08:22:40.665Z,18.80
2023-05-02T08:25:43.313Z,18.86
2023-05-02T08:28:46.110Z,19.09
2023-05-02T08:31:48.798Z,19.28
2023-05-02T08:34:56.135Z,19.36
2023-05-02T08:37:59.232Z,19.61
2023-05-02T08:41:02.194Z,19.79
2023-05-02T08:44:06.746Z,19.86
2023-05-02T08:47:11.447Z,19.85
2023-05-02T08:50:18.065Z,19.90
2023-05-02T08:53:21.659Z,20.07
2023-05-02T08:56:25.427Z,20.09
2023-05-02T08:59:28.178Z,20.35
2023-05-02T09:02:39.841Z,20.13
2023-05-02T09:05:43.129Z,19.97
2023-05-02T09:08:49.528Z,20.13
2023-05-02T09:11:52.850Z,20.25
2023-05-02T09:15:19.852Z,20.13
2023-05-02T09:18:23.495Z,20.20
2023-05-02T09:21:37.434Z,20.42
2023-05-02T09:24:40.836Z,20.88
2023-05-02T09:27:56.993Z,21.17
2023-05-02T09:31:11.338Z,21.14
2023-05-02T09:34:17.600Z,21.12
2023-05-02T09:37:36.142Z,21.01
2023-05-02T09:40:39.974Z,21.37
2023-05-02T09:43:43.499Z,21.79
2023-05-02T09:46:52.064Z,21.91
2023-05-02T09:49:54.862Z,22.10
2023-05-02T09:53:12.397Z,22.59
2023-05-02T09:56:15.458Z,22.60
2023-05-02T09:59:19.308Z,23.19
2023-05-02T10:02:22.930Z,23.15
2023-05-02T10:05:27.480Z,23.10
2023-05-02T10:08:34.896Z,22.95
2023-05-02T10:11:40.788Z,23.29
2023-05-02T10:14:50.957Z,23.25
2023-05-02T10:17:55.406Z,23.03
2023-05-02T10:21:01.674Z,22.85
2023-05-02T10:24:06.045Z,23.23
2023-05-02T10:27:08.787Z,23.78
2023-05-02T10:30:13.767Z,23.83
2023-05-02T10:33:21.235Z,23.22
2023-05-02T10:36:23.791Z,22.90
2023-05-02T10:39:28.277Z,23.28
2023-05-02T10:42:31.813Z,23.44
2023-05-02T10:45:36.617Z,23.16
2023-05-02T10:48:39.421Z,23.34
2023-05-02T10:51:43.013Z,23.22
2023-05-02T10:54:46.399Z,23.74
2023-05-02T10:58:01.217Z,23.74
2023-05-02T11:01:22.894Z,23.46
2023-05-02T11:04:25.943Z,23.78
2023-05-02T11:07:29.373Z,23.74
2023-05-02T11:10:35.271Z,23.90
2023-05-02T11:13:51.191Z,24.42
2023-05-02T11:16:59.986Z,24.90
2023-05-02T11:20:05.589Z,24.76
2023-05-02T11:23:18.302Z,24.16
2023-05-02T11:26:26.288Z,24.38
2023-05-02T11:30:06.744Z,24.08
2023-05-02T11:33:09.520Z,24.79
2023-05-02T11:36:12.420Z,25.07
2023-05-02T11:39:21.994Z,25.46
2023-05-02T11:42:30.804Z,25.53
2023-05-02T11:45:36.315Z,25.49
2023-05-02T11:48:39.742Z,25.46
2023-05-02T11:51:42.609Z,25.62
2023-05-02T11:54:45.797Z,25.36
2023-05-02T11:57:48.395Z,25.19
2023-05-02T12:00:52.621Z,25.56
2023-05-02T12:04:07.100Z,25.51
2023-05-02T12:07:12.317Z,26.44
2023-05-02T12:10:15.923Z,26.41
2023-05-02T12:13:19.782Z,26.35
2023-05-02T12:16:23.101Z,25.80
2023-05-02T12:19:27.704Z,26.44
2023-05-02T12:22:31.125Z,27.30
2023-05-02T12:25:39.299Z,26.83
2023-05-02T12:28:52.914Z,25.75
2023-05-02T12:31:56.134Z,26.22
2023-05-02T12:34:59.723Z,26.48
2023-05-02T12:38:20.480Z,26.00
2023-05-02T12:41:34.161Z,25.64
2023-05-02T12:44:41.541Z,26.27
2023-05-02T12:47:47.451Z,26.44
2023-05-02T12:50:50.724Z,26.19
2023-05-02T12:53:53.434Z,25.96
2023-05-02T12:56:56.057Z,25.71
2023-05-02T12:59:59.248Z,25.23
2023-05-02T13:03:02.235Z,25.19
2023-05-02T13:06:05.224Z,25.23
2023-05-02T13:09:07.994Z,24.85
2023-05-02T13:12:11.891Z,25.00
2023-05-02T13:15:15.434Z,25.12
2023-05-02T13:18:18.216Z,24.87
2023-05-02T13:21:21.093Z,24.80
2023-05-02T13:24:23.718Z,24.74
2023-05-02T13:27:26.814Z,24.35
2023-05-02T13:30:29.559Z,24.19
2023-05-02T13:33:32.440Z,24.47
2023-05-02T13:36:36.457Z,24.44
2023-05-02T13:39:39.301Z,24.45
2023-05-02T13:42:41.888Z,25.05
2023-05-02T13:45:44.850Z,25.90
2023-05-02T13:48:47.722Z,25.32
2023-05-02T13:51:51.345Z,25.12
2023-05-02T13:54:53.817Z,24.85
2023-05-02T13:57:56.432Z,24.26
2023-05-02T14:00:59.273Z,24.48
2023-05-02T14:04:07.045Z,24.54
2023-05-02T14:07:09.768Z,24.74
2023-05-02T14:10:12.364Z,24.97
2023-05-02T14:13:15.047Z,24.91
2023-05-02T14:16:17.656Z,24.63
2023-05-02T14:19:20.180Z,24.24
2023-05-02T14:22:22.729Z,23.65
2023-05-02T14:25:25.279Z,23.28
2023-05-02T14:28:27.927Z,22.99
2023-05-02T14:31:30.992Z,22.92
2023-05-02T14:34:33.598Z,22.80
2023-05-02T14:37:36.114Z,22.91
2023-05-02T14:40:38.880Z,23.07
2023-05-02T14:43:41.456Z,22.99
2023-05-02T14:46:44.020Z,22.86
2023-05-02T14:49:46.928Z,22.91
2023-05-02T14:52:50.048Z,22.88
2023-05-02T14:55:52.751Z,22.91
2023-05-02T14:58:55.370Z,22.88
2023-05-02T15:01:58.260Z,23.03
2023-05-02T15:05:01.456Z,23.26
2023-05-02T15:08:04.130Z,23.38
2023-05-02T15:11:06.862Z,23.26
2023-05-02T15:14:09.503Z,23.22
2023-05-02T15:17:12.083Z,23.19
2023-05-02T15:20:14.764Z,23.27
2023-05-02T15:23:17.238Z,23.13
2023-05-02T15:26:19.673Z,23.01
2023-05-02T15:29:22.144Z,23.12
2023-05-02T15:32:24.790Z,23.15
2023-05-02T15:35:27.325Z,22.96
2023-05-02T15:38:30.161Z,22.99
2023-05-02T15:41:33.441Z,22.97
2023-05-02T15:44:39.702Z,22.89
2023-05-02T15:47:42.259Z,22.84
2023-05-02T15:50:45.681Z,22.92
2023-05-02T15:53:52.174Z,22.75
2023-05-02T15:56:55.074Z,22.62
2023-05-02T15:59:57.604Z,22.56
2023-05-02T16:03:03.939Z,22.58
2023-05-02T16:06:07.689Z,22.61
2023-05-02T16:09:11.319Z,22.65
2023-05-02T16:12:14.761Z,22.54
2023-05-02T16:15:17.401Z,22.53
2023-05-02T16:18:20.144Z,22.56
2023-05-02T16:21:22.640Z,22.56
2023-05-02T16:24:26.049Z,22.46
2023-05-02T16:27:28.616Z,22.47
2023-05-02T16:30:31.194Z,22.41
2023-05-02T16:33:34.445Z,22.38
2023-05-02T16:36:36.986Z,22.38
2023-05-02T16:39:40.063Z,22.40
2023-05-02T16:42:43.240Z,22.32
2023-05-02T16:45:47.193Z,22.20
2023-05-02T16:48:49.774Z,22.09
2023-05-02T16:51:54.939Z,21.98
2023-05-02T16:54:57.901Z,21.86
2023-05-02T16:58:00.771Z,21.79
2023-05-02T17:01:03.496Z,21.71
2023-05-02T17:04:06.156Z,21.60
2023-05-02T17:07:11.741Z,21.54
2023-05-02T17:10:14.894Z,21.43
2023-05-02T17:13:17.809Z,21.34
2023-05-02T17:16:21.181Z,21.27
2023-05-02T17:19:24.373Z,21.15
2023-05-02T17:22:27.072Z,21.04
2023-05-02T17:25:30.663Z,20.95
2023-05-02T17:28:33.406Z,20.89
2023-05-02T17:31:36.070Z,20.82
2023-05-02T17:34:38.956Z,20.74
2023-05-02T17:37:41.485Z,20.68
2023-05-02T17:40:44.613Z,20.59
2023-05-02T17:43:48.743Z,20.51
2023-05-02T17:46:51.616Z,20.41
2023-05-02T17:49:54.432Z,20.47
2023-05-02T17:52:58.640Z,20.05
2023-05-02T17:56:04.776Z,19.80
2023-05-02T17:59:07.291Z,19.81
2023-05-02T18:02:10.407Z,19.74
2023-05-02T18:05:13.386Z,19.60
2023-05-02T18:08:16.635Z,19.54
2023-05-02T18:11:21.052Z,19.40
2023-05-02T18:14:23.897Z,19.27
2023-05-02T18:17:27.055Z,19.30
2023-05-02T18:20:30.116Z,19.04
2023-05-02T18:23:33.873Z,18.93
2023-05-02T18:26:36.652Z,18.80
2023-05-02T18:29:39.403Z,18.79
2023-05-02T18:32:42.467Z,18.77
2023-05-02T18:35:49.154Z,18.71
2023-05-02T18:38:52.032Z,18.64
2023-05-02T18:41:54.808Z,18.64
2023-05-02T18:44:57.409Z,18.60
2023-05-02T18:48:00.328Z,18.58
2023-05-02T18:51:03.163Z,18.52
2023-05-02T18:54:06.076Z,18.50
2023-05-02T18:57:08.701Z,18.41
2023-05-02T19:00:12.571Z,18.38
2023-05-02T19:03:15.856Z,18.32
2023-05-02T19:06:18.976Z,18.28
2023-05-02T19:09:22.102Z,18.29
2023-05-02T19:12:24.920Z,18.30
2023-05-02T19:15:28.090Z,18.26
2023-05-02T19:18:30.878Z,18.12
2023-05-02T19:21:36.924Z,18.13
2023-05-02T19:24:39.419Z,18.02
2023-05-02T19:27:44.311Z,17.95
2023-05-02T19:30:47.115Z,17.89
2023-05-02T19:33:51.653Z,17.79
2023-05-02T19:36:54.944Z,17.86
2023-05-02T19:39:58.267Z,17.82
2023-05-02T19:43:00.993Z,17.61
2023-05-02T19:46:04.630Z,17.50
2023-05-02T19:49:07.625Z,17.46
2023-05-02T19:52:10.579Z,17.36
2023-05-02T19:55:13.622Z,17.20
2023-05-02T19:58:16.274Z,17.13
2023-05-02T20:01:19.013Z,17.09
2023-05-02T20:04:21.664Z,17.03
2023-05-02T20:07:24.507Z,16.96
2023-05-02T20:10:27.373Z,16.88
2023-05-02T20:13:30.310Z,16.83
2023-05-02T20:16:33.003Z,16.80
2023-05-02T20:19:35.633Z,16.83
2023-05-02T20:22:40.067Z,16.85
2023-05-02T20:25:43.171Z,16.81
2023-05-02T20:28:45.703Z,16.82
2023-05-02T20:31:48.523Z,16.76
2023-05-02T20:34:51.238Z,16.74
2023-05-02T20:37:54.001Z,16.73
2023-05-02T20:40:57.585Z,16.73
2023-05-02T20:44:02.696Z,16.75
2023-05-02T20:47:05.295Z,16.83
2023-05-02T20:50:09.497Z,16.77
2023-05-02T20:53:12.034Z,16.74
2023-05-02T20:56:15.011Z,16.74
2023-05-02T20:59:17.737Z,16.71
2023-05-02T21:02:22.298Z,16.74
2023-05-02T21:05:24.783Z,16.93
2023-05-02T21:08:27.333Z,16.96
2023-05-02T21:11:29.922Z,16.89
2023-05-02T21:14:32.552Z,16.68
2023-05-02T21:17:35.226Z,16.62
2023-05-02T21:20:39.677Z,16.49
2023-05-02T21:23:42.218Z,16.51
2023-05-02T21:26:45.315Z,16.47
2023-05-02T21:29:48.948Z,16.40
2023-05-02T21:32:51.650Z,16.24
2023-05-02T21:35:57.778Z,16.11
2023-05-02T21:39:00.307Z,15.99
2023-05-02T21:42:03.190Z,15.90
2023-05-02T21:45:06.731Z,15.80
2023-05-02T21:48:09.301Z,15.79
2023-05-02T21:51:14.085Z,15.75
2023-05-02T21:54:16.917Z,15.64
2023-05-02T21:57:19.497Z,15.66
2023-05-02T22:00:22.791Z,15.58
2023-05-02T22:03:25.530Z,15.52
2023-05-02T22:06:28.590Z,15.46
2023-05-02T22:09:33.400Z,15.45
2023-05-02T22:12:36.333Z,15.44
2023-05-02T22:15:46.259Z,15.44
2023-05-02T22:18:49.748Z,15.43
2023-05-02T22:21:52.358Z,15.29
2023-05-02T22:24:54.978Z,15.38
2023-05-02T22:28:01.065Z,15.36
2023-05-02T22:31:04.037Z,15.27
2023-05-02T22:34:06.603Z,15.21
2023-05-02T22:37:09.112Z,15.19
2023-05-02T22:40:12.723Z,15.25
2023-05-02T22:43:15.751Z,15.13
2023-05-02T22:46:18.626Z,15.13
2023-05-02T22:49:21.484Z,14.92
2023-05-02T22:52:27.434Z,14.74
2023-05-02T22:55:30.081Z,14.87
2023-05-02T22:58:32.713Z,14.73
2023-05-02T23:01:35.266Z,14.60
2023-05-02T23:04:37.914Z,14.63
2023-05-02T23:07:40.541Z,14.70
2023-05-02T23:10:43.071Z,14.72
2023-05-02T23:13:46.040Z,14.66
2023-05-02T23:16:49.976Z,14.66
2023-05-02T23:19:52.483Z,14.61
2023-05-02T23:22:55.139Z,14.60
2023-05-02T23:25:58.313Z,14.68
2023-05-02T23:29:01.213Z,14.63
2023-05-02T23:32:04.808Z,14.56
2023-05-02T23:35:07.962Z,14.53
2023-05-02T23:38:10.635Z,14.54
2023-05-02T23:41:13.192Z,14.61
2023-05-02T23:44:15.832Z,14.52
2023-05-02T23:47:18.398Z,14.51
2023-05-02T23:50:20.945Z,14.51
2023-05-02T23:53:23.407Z,14.61
2023-05-02T23:56:26.744Z,14.60
2023-05-02T23:59:29.205Z,14.59
